createdAt,value
2024-02-12T00:00:59.025Z,13.06
2024-02-12T00:03:32.010Z,13.05
2024-02-12T00:05:54.956Z,13.04
2024-02-12T00:08:23.113Z,13.03
2024-02-12T00:10:45.556Z,13.01
2024-02-12T00:13:03.164Z,12.98
2024-02-12T00:15:25.811Z,12.94
2024-02-12T00:17:48.713Z,12.88
2024-02-12T00:20:14.955Z,12.84
2024-02-12T00:22:35.473Z,12.79
2024-02-12T00:24:54.270Z,12.77
2024-02-12T00:27:20.095Z,12.72
2024-02-12T00:29:44.143Z,12.68
2024-02-12T00:32:07.648Z,12.66
2024-02-12T00:34:27.804Z,12.63
2024-02-12T00:36:53.771Z,12.59
2024-02-12T00:39:11.832Z,12.55
2024-02-12T00:41:32.248Z,12.53
2024-02-12T00:43:56.338Z,12.51
2024-02-12T00:46:17.857Z,12.48
2024-02-12T00:48:38.099Z,12.43
2024-02-12T00:51:05.488Z,12.40
2024-02-12T00:53:26.628Z,12.37
2024-02-12T00:55:49.388Z,12.34
2024-02-12T00:58:15.910Z,12.29
2024-02-12T01:00:34.208Z,12.27
2024-02-12T01:02:56.863Z,12.23
2024-02-12T01:05:22.164Z,12.21
2024-02-12T01:07:54.165Z,12.17
2024-02-12T01:10:17.986Z,12.15
2024-02-12T01:12:44.453Z,12.12
2024-02-12T01:15:05.037Z,12.09
2024-02-12T01:17:29.602Z,12.07
2024-02-12T01:19:51.612Z,12.03
2024-02-12T01:22:15.771Z,12.00
2024-02-12T01:24:39.857Z,11.97
2024-02-12T01:27:00.218Z,11.92
2024-02-12T01:29:21.252Z,11.89
2024-02-12T01:31:38.510Z,11.87
2024-02-12T01:33:55.223Z,11.85
2024-02-12T01:36:10.787Z,11.83
2024-02-12T01:38:24.466Z,11.81
2024-02-12T01:40:37.961Z,11.79
2024-02-12T01:42:52.334Z,11.79
2024-02-12T01:45:14.799Z,11.78
2024-02-12T01:47:29.314Z,11.75
2024-02-12T01:49:42.100Z,11.74
2024-02-12T01:51:56.583Z,11.72
2024-02-12T01:54:10.344Z,11.70
2024-02-12T01:56:25.010Z,11.67
2024-02-12T01:58:39.233Z,11.65
2024-02-12T02:00:53.709Z,11.63
2024-02-12T02:03:07.426Z,11.65
2024-02-12T02:05:22.061Z,11.63
2024-02-12T02:07:35.616Z,11.67
2024-02-12T02:09:49.023Z,11.70
2024-02-12T02:12:02.545Z,11.75
2024-02-12T02:14:19.867Z,11.83
2024-02-12T02:16:38.577Z,11.90
2024-02-12T02:18:55.375Z,11.99
2024-02-12T02:21:15.156Z,12.08
2024-02-12T02:23:28.501Z,12.16
2024-02-12T02:25:42.705Z,12.23
2024-02-12T02:27:55.959Z,12.22
2024-02-12T02:30:10.175Z,12.19
2024-02-12T02:32:23.552Z,12.14
2024-02-12T02:34:39.538Z,12.06
2024-02-12T02:36:52.608Z,11.96
2024-02-12T02:39:06.479Z,11.88
2024-02-12T02:41:21.715Z,11.78
2024-02-12T02:43:35.179Z,11.69
2024-02-12T02:45:48.368Z,11.62
2024-02-12T02:48:19.453Z,11.57
2024-02-12T02:50:32.724Z,11.50
2024-02-12T02:52:46.144Z,11.41
2024-02-12T02:54:59.545Z,11.37
2024-02-12T02:57:13.190Z,11.31
2024-02-12T02:59:27.518Z,11.23
2024-02-12T03:01:41.077Z,11.15
2024-02-12T03:03:57.964Z,11.09
2024-02-12T03:06:16.016Z,11.01
2024-02-12T03:08:29.590Z,10.96
2024-02-12T03:10:42.922Z,10.90
2024-02-12T03:12:55.829Z,10.83
2024-02-12T03:15:12.815Z,10.79
2024-02-12T03:17:25.916Z,10.76
2024-02-12T03:19:39.905Z,10.72
2024-02-12T03:21:53.046Z,10.68
2024-02-12T03:24:07.151Z,10.65
2024-02-12T03:26:21.224Z,10.60
2024-02-12T03:28:37.618Z,10.57
2024-02-12T03:30:51.420Z,10.53
2024-02-12T03:33:05.169Z,10.48
2024-02-12T03:35:18.640Z,10.45
2024-02-12T03:37:31.642Z,10.40
2024-02-12T03:39:45.020Z,10.36
2024-02-12T03:41:58.571Z,10.33
2024-02-12T03:44:12.068Z,10.32
2024-02-12T03:46:33.567Z,10.29
2024-02-12T03:49:03.219Z,10.25
2024-02-12T03:51:32.644Z,10.23
2024-02-12T03:54:02.198Z,10.20
2024-02-12T03:56:32.207Z,10.19
2024-02-12T03:59:03.030Z,10.16
2024-02-12T04:01:16.298Z,10.16
2024-02-12T04:03:28.912Z,10.14
2024-02-12T04:05:42.316Z,10.13
2024-02-12T04:07:55.722Z,10.12
2024-02-12T04:10:13.164Z,10.10
2024-02-12T04:12:26.493Z,10.09
2024-02-12T04:14:39.243Z,10.06
2024-02-12T04:16:55.458Z,10.03
2024-02-12T04:19:08.272Z,10.00
2024-02-12T04:21:22.598Z,9.96
2024-02-12T04:23:35.553Z,9.96
2024-02-12T04:25:48.300Z,9.93
2024-02-12T04:28:03.169Z,9.91
2024-02-12T04:30:18.062Z,9.91
2024-02-12T04:32:32.511Z,9.88
2024-02-12T04:34:45.677Z,9.87
2024-02-12T04:36:59.848Z,9.85
2024-02-12T04:39:13.293Z,9.84
2024-02-12T04:41:26.502Z,9.84
2024-02-12T04:43:39.455Z,9.82
2024-02-12T04:45:54.234Z,9.84
2024-02-12T04:48:14.544Z,9.82
2024-02-12T04:50:28.010Z,9.81
2024-02-12T04:52:42.541Z,9.81
2024-02-12T04:54:55.193Z,9.80
2024-02-12T04:57:08.581Z,9.79
2024-02-12T04:59:23.059Z,9.76
2024-02-12T05:01:35.604Z,9.74
2024-02-12T05:03:48.330Z,9.72
2024-02-12T05:06:00.719Z,9.70
2024-02-12T05:08:13.614Z,9.69
2024-02-12T05:10:26.378Z,9.68
2024-02-12T05:12:39.312Z,9.68
2024-02-12T05:14:52.226Z,9.66
2024-02-12T05:17:07.933Z,9.64
2024-02-12T05:19:36.881Z,9.61
2024-02-12T05:22:07.044Z,9.59
2024-02-12T05:24:19.686Z,9.58
2024-02-12T05:26:32.418Z,9.57
2024-02-12T05:28:45.284Z,9.55
2024-02-12T05:30:57.872Z,9.51
2024-02-12T05:33:12.566Z,9.47
2024-02-12T05:35:26.038Z,9.44
2024-02-12T05:37:38.568Z,9.38
2024-02-12T05:39:51.040Z,9.32
2024-02-12T05:42:03.564Z,9.28
2024-02-12T05:44:16.679Z,9.23
2024-02-12T05:46:29.480Z,9.19
2024-02-12T05:48:44.804Z,9.15
2024-02-12T05:50:57.602Z,9.12
2024-02-12T05:53:11.651Z,9.09
2024-02-12T05:55:24.086Z,9.06
2024-02-12T05:57:37.285Z,9.04
2024-02-12T05:59:50.508Z,9.02
2024-02-12T06:02:03.281Z,8.99
2024-02-12T06:04:15.984Z,9.00
2024-02-12T06:06:28.772Z,9.00
2024-02-12T06:08:41.466Z,8.99
2024-02-12T06:10:54.390Z,8.97
2024-02-12T06:13:07.508Z,8.96
2024-02-12T06:15:21.014Z,8.95
2024-02-12T06:17:33.647Z,8.94
2024-02-12T06:19:46.223Z,8.93
2024-02-12T06:21:59.473Z,8.90
2024-02-12T06:24:13.721Z,8.90
2024-02-12T06:26:27.420Z,8.88
2024-02-12T06:28:42.893Z,8.87
2024-02-12T06:30:55.758Z,8.85
2024-02-12T06:33:10.034Z,8.85
2024-02-12T06:35:23.021Z,8.82
2024-02-12T06:37:35.533Z,8.81
2024-02-12T06:39:50.213Z,8.78
2024-02-12T06:42:03.318Z,8.76
2024-02-12T06:44:17.649Z,8.75
2024-02-12T06:46:30.629Z,8.75
2024-02-12T06:48:44.088Z,8.73
2024-02-12T06:50:57.014Z,8.74
2024-02-12T06:53:10.789Z,8.73
2024-02-12T06:55:23.790Z,8.72
2024-02-12T06:57:36.159Z,8.71
2024-02-12T06:59:48.983Z,8.70
2024-02-12T07:02:01.830Z,8.69
2024-02-12T07:04:15.585Z,8.67
2024-02-12T07:06:28.281Z,8.67
2024-02-12T07:08:40.870Z,8.66
2024-02-12T07:10:54.666Z,8.65
2024-02-12T07:13:07.718Z,8.65
2024-02-12T07:15:20.509Z,8.64
2024-02-12T07:17:34.200Z,8.63
2024-02-12T07:19:53.162Z,8.63
2024-02-12T07:22:05.661Z,8.63
2024-02-12T07:24:18.492Z,8.61
2024-02-12T07:26:31.359Z,8.61
2024-02-12T07:28:44.410Z,8.60
2024-02-12T07:30:57.227Z,8.59
2024-02-12T07:33:10.480Z,8.57
2024-02-12T07:35:24.349Z,8.52
2024-02-12T07:37:38.354Z,8.53
2024-02-12T07:39:52.155Z,8.52
2024-02-12T07:42:06.655Z,8.49
2024-02-12T07:44:19.693Z,8.48
2024-02-12T07:46:34.158Z,8.47
2024-02-12T07:48:47.710Z,8.47
2024-02-12T07:51:01.607Z,8.47
2024-02-12T07:53:14.201Z,8.47
2024-02-12T07:55:26.918Z,8.47
2024-02-12T07:57:39.537Z,8.47
2024-02-12T07:59:53.210Z,8.45
2024-02-12T08:02:06.081Z,8.46
2024-02-12T08:04:19.421Z,8.45
2024-02-12T08:06:32.422Z,8.45
2024-02-12T08:08:45.402Z,8.44
2024-02-12T08:10:57.887Z,8.44
2024-02-12T08:13:11.064Z,8.42
2024-02-12T08:15:23.823Z,8.42
2024-02-12T08:17:37.632Z,8.43
2024-02-12T08:19:51.585Z,8.42
2024-02-12T08:22:04.408Z,8.42
2024-02-12T08:24:19.271Z,8.42
2024-02-12T08:26:32.286Z,8.42
2024-02-12T08:28:46.414Z,8.41
2024-02-12T08:31:02.064Z,8.41
2024-02-12T08:33:15.422Z,8.41
2024-02-12T08:35:28.399Z,8.41
2024-02-12T08:37:42.234Z,8.40
2024-02-12T08:39:54.887Z,8.39
2024-02-12T08:42:08.063Z,8.38
2024-02-12T08:44:20.849Z,8.37
2024-02-12T08:46:33.842Z,8.37
2024-02-12T08:48:46.426Z,8.35
2024-02-12T08:51:00.822Z,8.35
2024-02-12T08:53:14.435Z,8.29
2024-02-12T08:55:31.013Z,8.33
2024-02-12T08:57:44.512Z,8.31
2024-02-12T08:59:56.937Z,8.30
2024-02-12T09:02:10.615Z,8.29
2024-02-12T09:04:23.536Z,8.29
2024-02-12T09:06:37.203Z,8.27
2024-02-12T09:08:50.731Z,8.26
2024-02-12T09:11:03.168Z,8.23
2024-02-12T09:13:15.980Z,8.24
2024-02-12T09:15:29.747Z,8.24
2024-02-12T09:17:42.999Z,8.22
2024-02-12T09:19:55.802Z,8.22
2024-02-12T09:22:12.035Z,8.22
2024-02-12T09:24:25.045Z,8.22
2024-02-12T09:26:37.923Z,8.21
2024-02-12T09:28:51.035Z,8.20
2024-02-12T09:31:03.780Z,8.20
2024-02-12T09:33:16.769Z,8.19
2024-02-12T09:35:29.401Z,8.20
2024-02-12T09:37:42.680Z,8.19
2024-02-12T09:39:55.337Z,8.19
2024-02-12T09:42:08.899Z,8.18
2024-02-12T09:44:24.083Z,8.18
2024-02-12T09:46:40.872Z,8.17
2024-02-12T09:48:54.278Z,8.15
2024-02-12T09:51:07.959Z,8.17
2024-02-12T09:53:22.299Z,8.16
2024-02-12T09:55:36.181Z,8.15
2024-02-12T09:57:48.803Z,8.14
2024-02-12T10:00:01.342Z,8.13
2024-02-12T10:02:17.562Z,8.11
2024-02-12T10:04:30.713Z,8.12
2024-02-12T10:06:43.161Z,8.11
2024-02-12T10:09:08.362Z,8.12
2024-02-12T10:11:26.823Z,8.13
2024-02-12T10:13:40.628Z,8.13
2024-02-12T10:15:55.716Z,8.14
2024-02-12T10:18:09.032Z,8.11
2024-02-12T10:20:21.901Z,8.12
2024-02-12T10:22:34.834Z,8.11
2024-02-12T10:24:49.989Z,8.10
2024-02-12T10:27:03.389Z,8.10
2024-02-12T10:29:16.313Z,8.09
2024-02-12T10:31:29.795Z,8.09
2024-02-12T10:33:45.408Z,8.09
2024-02-12T10:35:59.392Z,8.09
2024-02-12T10:38:14.919Z,8.09
2024-02-12T10:40:33.754Z,8.08
2024-02-12T10:42:54.336Z,8.09
2024-02-12T10:45:08.438Z,8.09
2024-02-12T10:47:21.521Z,8.10
2024-02-12T10:49:34.902Z,8.11
2024-02-12T10:51:49.585Z,8.10
2024-02-12T10:54:02.202Z,8.11
2024-02-12T10:56:17.270Z,8.11
2024-02-12T10:58:30.327Z,8.14
2024-02-12T11:00:49.737Z,8.15
2024-02-12T11:03:11.067Z,8.16
2024-02-12T11:05:25.890Z,8.17
2024-02-12T11:07:39.368Z,8.17
2024-02-12T11:10:05.626Z,8.18
2024-02-12T11:12:24.902Z,8.18
2024-02-12T11:14:44.345Z,8.18
2024-02-12T11:16:57.750Z,8.19
2024-02-12T11:19:20.725Z,8.21
2024-02-12T11:21:38.240Z,8.22
2024-02-12T11:23:53.510Z,8.22
2024-02-12T11:26:08.263Z,8.22
2024-02-12T11:28:25.783Z,8.21
2024-02-12T11:30:43.704Z,8.21
2024-02-12T11:32:59.185Z,8.19
2024-02-12T11:35:17.941Z,8.19
2024-02-12T11:37:30.400Z,8.19
2024-02-12T11:39:43.036Z,8.19
2024-02-12T11:41:55.771Z,8.19
2024-02-12T11:44:11.135Z,8.18
2024-02-12T11:49:20.228Z,8.16
2024-02-12T11:51:43.819Z,8.16
2024-02-12T11:54:05.483Z,8.16
2024-02-12T11:56:21.568Z,8.12
2024-02-12T11:58:34.717Z,8.15
2024-02-12T12:00:48.537Z,8.14
2024-02-12T12:03:02.669Z,8.15
2024-02-12T12:05:35.565Z,8.16
2024-02-12T12:08:00.542Z,8.15
2024-02-12T12:10:14.973Z,8.13
2024-02-12T12:12:34.239Z,8.12
2024-02-12T12:15:08.842Z,8.11
2024-02-12T12:17:32.470Z,8.09
2024-02-12T12:19:59.914Z,8.08
2024-02-12T12:22:25.580Z,8.06
2024-02-12T12:24:47.806Z,8.05
2024-02-12T12:27:01.633Z,8.07
2024-02-12T12:29:28.143Z,8.06
2024-02-12T12:31:51.925Z,8.08
2024-02-12T12:34:08.536Z,8.04
2024-02-12T12:36:22.374Z,8.08
2024-02-12T12:38:44.593Z,8.08
2024-02-12T12:40:58.471Z,8.07
2024-02-12T12:43:15.800Z,8.07
2024-02-12T12:45:28.889Z,8.07
2024-02-12T12:47:42.274Z,8.06
2024-02-12T12:49:59.067Z,8.06
2024-02-12T12:52:13.366Z,8.06
2024-02-12T12:54:30.304Z,8.04
2024-02-12T12:56:53.710Z,8.02
2024-02-12T12:59:08.172Z,7.99
2024-02-12T13:01:30.966Z,7.98
2024-02-12T13:03:43.806Z,7.97
2024-02-12T13:06:00.040Z,7.96
2024-02-12T13:08:19.879Z,7.95
2024-02-12T13:10:41.695Z,7.94
2024-02-12T13:12:56.292Z,7.94
2024-02-12T13:15:11.813Z,7.93
2024-02-12T13:17:35.492Z,7.91
2024-02-12T13:19:48.624Z,7.91
2024-02-12T13:22:01.742Z,7.90
2024-02-12T13:24:17.485Z,7.90
2024-02-12T13:26:41.504Z,7.88
2024-02-12T13:28:55.513Z,7.87
2024-02-12T13:31:20.359Z,7.88
2024-02-12T13:33:36.258Z,7.89
2024-02-12T13:35:53.371Z,7.89
2024-02-12T13:38:06.213Z,7.88
2024-02-12T13:40:21.941Z,7.84
2024-02-12T13:42:35.089Z,7.87
2024-02-12T13:44:50.559Z,7.87
2024-02-12T13:47:05.589Z,7.87
2024-02-12T13:49:22.610Z,7.88
2024-02-12T13:51:36.945Z,7.89
2024-02-12T13:53:58.394Z,7.88
2024-02-12T13:56:12.338Z,7.89
2024-02-12T13:58:28.814Z,7.89
2024-02-12T14:01:03.077Z,7.89
2024-02-12T14:03:28.591Z,7.88
2024-02-12T14:05:50.833Z,7.88
2024-02-12T14:08:04.648Z,7.88
2024-02-12T14:10:30.191Z,7.87
2024-02-12T14:12:42.987Z,7.84
2024-02-12T14:14:59.194Z,7.86
2024-02-12T14:17:13.683Z,7.86
2024-02-12T14:19:29.537Z,7.87
2024-02-12T14:21:51.518Z,7.86
2024-02-12T14:24:14.265Z,7.86
2024-02-12T14:26:29.141Z,7.86
2024-02-12T14:28:46.152Z,7.85
2024-02-12T14:31:02.584Z,7.84
2024-02-12T14:33:27.077Z,7.83
2024-02-12T14:35:51.803Z,7.82
2024-02-12T14:38:12.830Z,7.81
2024-02-12T14:40:45.658Z,7.74
2024-02-12T14:42:59.127Z,7.80
2024-02-12T14:45:13.947Z,7.81
2024-02-12T14:47:27.280Z,7.80
2024-02-12T14:49:40.559Z,7.80
2024-02-12T14:51:56.677Z,7.79
2024-02-12T14:54:09.969Z,7.77
2024-02-12T14:56:26.314Z,7.78
2024-02-12T14:58:59.784Z,7.78
2024-02-12T15:01:19.466Z,7.79
2024-02-12T15:03:36.387Z,7.79
2024-02-12T15:05:49.155Z,7.78
2024-02-12T15:08:03.670Z,7.79
2024-02-12T15:10:23.253Z,7.78
2024-02-12T15:12:36.289Z,7.77
2024-02-12T15:15:00.235Z,7.76
2024-02-12T15:17:24.315Z,7.73
2024-02-12T15:19:40.436Z,7.74
2024-02-12T15:21:55.590Z,7.73
2024-02-12T15:24:18.562Z,7.73
2024-02-12T15:26:34.816Z,7.73
2024-02-12T15:28:47.399Z,7.74
2024-02-12T15:31:22.034Z,7.76
2024-02-12T15:33:35.119Z,7.75
2024-02-12T15:35:58.946Z,7.76
2024-02-12T15:38:34.660Z,7.75
2024-02-12T15:40:51.692Z,7.78
2024-02-12T15:43:14.643Z,7.78
2024-02-12T15:45:31.069Z,7.78
2024-02-12T15:47:58.570Z,7.78
2024-02-12T15:50:20.769Z,7.77
2024-02-12T15:52:34.167Z,7.74
2024-02-12T15:54:54.432Z,7.75
2024-02-12T15:57:07.492Z,7.76
2024-02-12T15:59:20.492Z,7.74
2024-02-12T16:01:36.872Z,7.77
2024-02-12T16:03:58.956Z,7.79
2024-02-12T16:06:19.137Z,7.82
2024-02-12T16:08:32.161Z,7.83
2024-02-12T16:10:54.146Z,7.82
2024-02-12T16:13:10.070Z,7.85
2024-02-12T16:15:22.678Z,7.86
2024-02-12T16:17:36.291Z,7.87
2024-02-12T16:19:51.321Z,7.88
2024-02-12T16:22:07.181Z,7.90
2024-02-12T16:24:23.682Z,7.91
2024-02-12T16:26:39.114Z,7.91
2024-02-12T16:28:56.242Z,7.95
2024-02-12T16:31:09.413Z,7.97
2024-02-12T16:33:31.084Z,8.00
2024-02-12T16:35:44.057Z,8.01
2024-02-12T16:37:59.612Z,8.01
2024-02-12T16:40:15.994Z,8.00
2024-02-12T16:42:29.169Z,8.01
2024-02-12T16:44:43.465Z,8.02
2024-02-12T16:46:56.157Z,8.06
2024-02-12T16:49:09.255Z,8.09
2024-02-12T16:51:26.863Z,8.13
2024-02-12T16:53:49.828Z,8.18
2024-02-12T16:56:02.602Z,8.20
2024-02-12T16:58:15.836Z,8.21
2024-02-12T17:00:28.628Z,8.23
2024-02-12T17:02:41.610Z,8.24
2024-02-12T17:04:58.545Z,8.26
2024-02-12T17:07:22.121Z,8.28
2024-02-12T17:09:35.194Z,8.28
2024-02-12T17:12:11.278Z,8.35
2024-02-12T17:14:27.471Z,8.39
2024-02-12T17:16:50.614Z,8.38
2024-02-12T17:19:03.539Z,8.44
2024-02-12T17:21:17.075Z,8.45
2024-02-12T17:23:38.828Z,8.47
2024-02-12T17:25:51.637Z,8.49
2024-02-12T17:28:05.815Z,8.48
2024-02-12T17:30:24.515Z,8.52
2024-02-12T17:32:39.911Z,8.54
2024-02-12T17:34:53.052Z,8.56
2024-02-12T17:37:06.772Z,8.59
2024-02-12T17:39:25.411Z,8.63
2024-02-12T17:41:38.158Z,8.68
2024-02-12T17:43:51.257Z,8.72
2024-02-12T17:46:19.339Z,8.75
2024-02-12T17:48:33.212Z,8.79
2024-02-12T17:50:46.267Z,8.83
2024-02-12T17:53:01.347Z,8.86
2024-02-12T17:55:14.732Z,8.90
2024-02-12T17:57:28.637Z,8.93
2024-02-12T17:59:41.567Z,8.95
2024-02-12T18:01:54.542Z,8.95
2024-02-12T18:04:07.929Z,8.95
2024-02-12T18:06:40.183Z,8.98
2024-02-12T18:08:53.236Z,9.02
2024-02-12T18:11:06.155Z,9.07
2024-02-12T18:13:22.050Z,9.12
2024-02-12T18:15:37.910Z,9.16
2024-02-12T18:17:51.555Z,9.21
2024-02-12T18:20:16.642Z,9.23
2024-02-12T18:22:49.596Z,9.29
2024-02-12T18:25:14.694Z,9.35
2024-02-12T18:27:37.516Z,9.43
2024-02-12T18:30:13.167Z,9.49
2024-02-12T18:32:46.990Z,9.56
2024-02-12T18:35:01.189Z,9.58
2024-02-12T18:37:16.330Z,9.63
2024-02-12T18:39:30.121Z,9.70
2024-02-12T18:41:46.029Z,9.75
2024-02-12T18:44:13.968Z,9.82
2024-02-12T18:46:26.819Z,9.86
2024-02-12T18:48:51.613Z,9.91
2024-02-12T18:51:10.844Z,9.99
2024-02-12T18:53:26.428Z,10.06
2024-02-12T18:55:49.100Z,10.13
2024-02-12T18:58:01.890Z,10.17
2024-02-12T19:00:18.755Z,10.23
2024-02-12T19:02:53.009Z,10.32
2024-02-12T19:05:06.335Z,10.43
2024-02-12T19:07:20.731Z,10.56
2024-02-12T19:09:33.408Z,10.83
2024-02-12T19:11:55.507Z,11.24
2024-02-12T19:14:14.935Z,11.52
2024-02-12T19:16:32.499Z,11.77
2024-02-12T19:18:46.800Z,12.02
2024-02-12T19:21:01.880Z,12.13
2024-02-12T19:23:15.395Z,12.20
2024-02-12T19:25:48.081Z,12.32
2024-02-12T19:28:21.614Z,12.42
2024-02-12T19:30:34.709Z,12.57
2024-02-12T19:32:47.722Z,12.70
2024-02-12T19:35:01.229Z,12.89
2024-02-12T19:37:24.537Z,13.11
2024-02-12T19:39:37.578Z,13.29
2024-02-12T19:41:50.316Z,13.51
2024-02-12T19:44:03.314Z,13.59
2024-02-12T19:46:36.275Z,13.59
2024-02-12T19:49:00.311Z,13.58
2024-02-12T19:51:21.938Z,13.58
2024-02-12T19:53:35.340Z,13.64
2024-02-12T19:55:48.179Z,13.78
2024-02-12T19:58:03.817Z,13.96
2024-02-12T20:00:26.337Z,14.09
2024-02-12T20:02:42.496Z,14.15
2024-02-12T20:05:03.679Z,14.18
2024-02-12T20:07:19.294Z,14.18
2024-02-12T20:09:31.940Z,14.17
2024-02-12T20:11:48.467Z,14.16
2024-02-12T20:14:01.586Z,14.15
2024-02-12T20:16:15.678Z,14.16
2024-02-12T20:18:31.844Z,14.13
2024-02-12T20:20:45.002Z,14.09
2024-02-12T20:23:17.827Z,14.10
2024-02-12T20:25:31.588Z,14.10
2024-02-12T20:27:53.329Z,14.11
2024-02-12T20:30:13.176Z,14.15
2024-02-12T20:32:28.020Z,14.17
2024-02-12T20:35:01.362Z,14.19
2024-02-12T20:37:18.457Z,14.19
2024-02-12T20:39:32.284Z,14.19
2024-02-12T20:41:46.467Z,14.20
2024-02-12T20:44:02.558Z,14.21
2024-02-12T20:46:15.224Z,14.28
2024-02-12T20:48:38.591Z,14.32
2024-02-12T20:50:55.904Z,14.34
2024-02-12T20:53:13.362Z,14.34
2024-02-12T20:55:29.130Z,14.34
2024-02-12T20:57:48.072Z,14.36
2024-02-12T21:00:00.833Z,14.42
2024-02-12T21:02:14.192Z,14.50
2024-02-12T21:04:27.859Z,14.48
2024-02-12T21:07:00.485Z,14.40
2024-02-12T21:09:15.795Z,14.33
2024-02-12T21:11:40.100Z,14.24
2024-02-12T21:13:52.898Z,14.16
2024-02-12T21:16:06.568Z,14.09
2024-02-12T21:18:19.410Z,14.01
2024-02-12T21:20:32.274Z,13.96
2024-02-12T21:22:44.807Z,13.94
2024-02-12T21:25:00.591Z,13.91
2024-02-12T21:27:15.923Z,13.88
2024-02-12T21:29:29.042Z,13.85
2024-02-12T21:31:42.516Z,13.83
2024-02-12T21:33:58.278Z,13.79
2024-02-12T21:36:12.858Z,13.76
2024-02-12T21:38:30.374Z,13.69
2024-02-12T21:40:52.614Z,13.65
2024-02-12T21:43:05.793Z,13.64
2024-02-12T21:45:30.628Z,13.61
2024-02-12T21:47:53.604Z,13.60
2024-02-12T21:50:08.429Z,13.59
2024-02-12T21:52:21.508Z,13.58
2024-02-12T21:54:34.901Z,13.56
2024-02-12T21:57:08.385Z,13.55
2024-02-12T21:59:35.430Z,13.53
2024-02-12T22:01:51.910Z,13.51
2024-02-12T22:04:05.247Z,13.50
2024-02-12T22:06:20.588Z,13.48
2024-02-12T22:08:33.910Z,13.46
2024-02-12T22:11:00.275Z,13.45
2024-02-12T22:13:13.962Z,13.43
2024-02-12T22:15:36.730Z,13.41
2024-02-12T22:18:01.477Z,13.39
2024-02-12T22:20:18.974Z,13.36
2024-02-12T22:22:31.469Z,13.30
2024-02-12T22:24:49.482Z,13.26
2024-02-12T22:27:02.222Z,13.22
2024-02-12T22:29:15.058Z,13.20
2024-02-12T22:31:48.431Z,13.17
2024-02-12T22:34:05.732Z,13.14
2024-02-12T22:36:23.630Z,13.10
2024-02-12T22:38:36.546Z,13.08
2024-02-12T22:41:09.315Z,13.04
2024-02-12T22:43:22.228Z,13.06
2024-02-12T22:45:34.954Z,13.05
2024-02-12T22:47:51.465Z,13.04
2024-02-12T22:50:10.611Z,13.04
2024-02-12T22:52:33.065Z,13.03
2024-02-12T22:54:59.070Z,13.02
2024-02-12T22:57:12.872Z,13.01
2024-02-12T22:59:45.888Z,12.99
2024-02-12T23:01:59.025Z,12.97
2024-02-12T23:04:33.531Z,12.88
2024-02-12T23:06:49.341Z,12.78
2024-02-12T23:09:13.601Z,12.68
2024-02-12T23:11:29.897Z,12.62
2024-02-12T23:13:43.067Z,12.60
2024-02-12T23:15:55.748Z,12.57
2024-02-12T23:18:11.586Z,12.56
2024-02-12T23:20:28.708Z,12.55
2024-02-12T23:22:44.963Z,12.55
2024-02-12T23:24:57.977Z,12.56
2024-02-12T23:27:11.392Z,12.58
2024-02-12T23:29:34.419Z,12.61
2024-02-12T23:31:47.963Z,12.63
2024-02-12T23:34:04.436Z,12.65
2024-02-12T23:36:21.506Z,12.68
2024-02-12T23:38:45.635Z,12.70
2024-02-12T23:41:05.064Z,12.72
2024-02-12T23:43:30.018Z,12.72
2024-02-12T23:45:46.285Z,12.76
2024-02-12T23:47:59.090Z,12.77
2024-02-12T23:50:15.673Z,12.75
2024-02-12T23:52:28.642Z,12.72
2024-02-12T23:54:42.422Z,12.68
2024-02-12T23:57:06.552Z,12.62
2024-02-12T23:59:19.191Z,12.56
